sensor_id;sensor_type;location;lat;lon;timestamp;P1;durP1;ratioP1;P2;durP2;ratioP2
28934;SDS011;16044;52.726;-2.108;2023-02-21T00:00:44;2.10;;;1.33;;
28934;SDS011;16044;52.726;-2.108;2023-02-21T00:03:32;2.03;;;1.33;;
28934;SDS011;16044;52.726;-2.108;2023-02-21T00:06:17;2.08;;;1.30;;
28934;SDS011;16044;52.726;-2.108;2023-02-21T00:11:48;1.90;;;1.27;;
28934;SDS011;16044;52.726;-2.108;2023-02-21T00:14:35;2.35;;;1.30;;
28934;SDS011;16044;52.726;-2.108;2023-02-21T00:17:22;3.85;;;1.15;;
28934;SDS011;16044;52.726;-2.108;2023-02-21T00:20:08;2.75;;;1.40;;
28934;SDS011;16044;52.726;-2.108;2023-02-21T00:22:54;1.75;;;1.20;;
28934;SDS011;16044;52.726;-2.108;2023-02-21T00:28:25;1.70;;;1.15;;
28934;SDS011;16044;52.726;-2.108;2023-02-21T00:31:10;1.95;;;1.27;;
28934;SDS011;16044;52.726;-2.108;2023-02-21T00:33:56;2.00;;;1.30;;
28934;SDS011;16044;52.726;-2.108;2023-02-21T00:36:41;2.05;;;1.20;;
28934;SDS011;16044;52.726;-2.108;2023-02-21T00:39:27;2.55;;;1.30;;
28934;SDS011;16044;52.726;-2.108;2023-02-21T00:42:12;1.98;;;1.17;;
28934;SDS011;16044;52.726;-2.108;2023-02-21T00:47:43;2.47;;;1.20;;
28934;SDS011;16044;52.726;-2.108;2023-02-21T00:50:28;2.78;;;1.20;;
28934;SDS011;16044;52.726;-2.108;2023-02-21T00:53:13;1.80;;;1.15;;
28934;SDS011;16044;52.726;-2.108;2023-02-21T00:55:58;2.22;;;1.23;;
28934;SDS011;16044;52.726;-2.108;2023-02-21T00:58:44;1.85;;;1.15;;
28934;SDS011;16044;52.726;-2.108;2023-02-21T01:01:29;1.83;;;1.27;;
28934;SDS011;16044;52.726;-2.108;2023-02-21T01:04:15;2.50;;;1.23;;
28934;SDS011;16044;52.726;-2.108;2023-02-21T01:07:00;1.50;;;0.80;;
28934;SDS011;16044;52.726;-2.108;2023-02-21T01:09:46;0.90;;;0.50;;
28934;SDS011;16044;52.726;-2.108;2023-02-21T01:12:32;3.03;;;0.63;;
28934;SDS011;16044;52.726;-2.108;2023-02-21T01:15:17;0.52;;;0.40;;
28934;SDS011;16044;52.726;-2.108;2023-02-21T01:18:03;0.63;;;0.30;;
28934;SDS011;16044;52.726;-2.108;2023-02-21T01:20:48;1.20;;;0.30;;
28934;SDS011;16044;52.726;-2.108;2023-02-21T01:26:19;0.30;;;0.20;;
28934;SDS011;16044;52.726;-2.108;2023-02-21T01:29:04;0.30;;;0.20;;
28934;SDS011;16044;52.726;-2.108;2023-02-21T01:34:35;0.30;;;0.20;;
28934;SDS011;16044;52.726;-2.108;2023-02-21T01:40:06;0.63;;;0.20;;
28934;SDS011;16044;52.726;-2.108;2023-02-21T01:42:52;0.90;;;0.30;;
28934;SDS011;16044;52.726;-2.108;2023-02-21T01:45:42;0.45;;;0.20;;
28934;SDS011;16044;52.726;-2.108;2023-02-21T01:48:35;0.57;;;0.20;;
28934;SDS011;16044;52.726;-2.108;2023-02-21T01:51:26;0.30;;;0.20;;
28934;SDS011;16044;52.726;-2.108;2023-02-21T01:54:17;4.50;;;0.10;;
28934;SDS011;16044;52.726;-2.108;2023-02-21T01:57:05;0.60;;;0.10;;
28934;SDS011;16044;52.726;-2.108;2023-02-21T01:59:53;0.25;;;0.10;;
28934;SDS011;16044;52.726;-2.108;2023-02-21T02:05:49;0.20;;;0.10;;
28934;SDS011;16044;52.726;-2.108;2023-02-21T02:08:40;0.32;;;0.13;;
28934;SDS011;16044;52.726;-2.108;2023-02-21T02:35:42;0.45;;;0.20;;
28934;SDS011;16044;52.726;-2.108;2023-02-21T02:41:29;0.52;;;0.20;;
28934;SDS011;16044;52.726;-2.108;2023-02-21T02:46:46;0.68;;;0.20;;
28934;SDS011;16044;52.726;-2.108;2023-02-21T02:49:17;0.57;;;0.22;;
28934;SDS011;16044;52.726;-2.108;2023-02-21T02:51:50;0.88;;;0.20;;
28934;SDS011;16044;52.726;-2.108;2023-02-21T02:54:18;0.50;;;0.30;;
28934;SDS011;16044;52.726;-2.108;2023-02-21T02:56:45;0.70;;;0.30;;
28934;SDS011;16044;52.726;-2.108;2023-02-21T02:59:18;0.70;;;0.43;;
28934;SDS011;16044;52.726;-2.108;2023-02-21T03:01:58;0.85;;;0.30;;
28934;SDS011;16044;52.726;-2.108;2023-02-21T03:19:24;0.80;;;0.50;;
28934;SDS011;16044;52.726;-2.108;2023-02-21T03:22:16;0.73;;;0.32;;
28934;SDS011;16044;52.726;-2.108;2023-02-21T03:24:47;1.10;;;0.50;;
28934;SDS011;16044;52.726;-2.108;2023-02-21T03:27:16;1.95;;;0.40;;
28934;SDS011;16044;52.726;-2.108;2023-02-21T03:29:46;0.63;;;0.40;;
28934;SDS011;16044;52.726;-2.108;2023-02-21T03:32:15;1.00;;;0.40;;
28934;SDS011;16044;52.726;-2.108;2023-02-21T03:34:53;1.20;;;0.40;;
28934;SDS011;16044;52.726;-2.108;2023-02-21T03:40:12;0.68;;;0.30;;
28934;SDS011;16044;52.726;-2.108;2023-02-21T03:42:43;0.60;;;0.30;;
28934;SDS011;16044;52.726;-2.108;2023-02-21T03:45:10;0.77;;;0.30;;
28934;SDS011;16044;52.726;-2.108;2023-02-21T03:47:37;0.30;;;0.20;;
28934;SDS011;16044;52.726;-2.108;2023-02-21T03:50:05;0.30;;;0.20;;
28934;SDS011;16044;52.726;-2.108;2023-02-21T03:52:32;0.63;;;0.10;;
28934;SDS011;16044;52.726;-2.108;2023-02-21T03:54:59;1.13;;;0.20;;
28934;SDS011;16044;52.726;-2.108;2023-02-21T03:57:26;0.40;;;0.20;;
28934;SDS011;16044;52.726;-2.108;2023-02-21T03:59:53;0.55;;;0.10;;
28934;SDS011;16044;52.726;-2.108;2023-02-21T04:02:20;0.30;;;0.10;;
28934;SDS011;16044;52.726;-2.108;2023-02-21T04:04:48;0.20;;;0.20;;
28934;SDS011;16044;52.726;-2.108;2023-02-21T04:07:16;0.10;;;0.10;;
28934;SDS011;16044;52.726;-2.108;2023-02-21T04:09:45;0.30;;;0.13;;
28934;SDS011;16044;52.726;-2.108;2023-02-21T04:12:14;0.88;;;0.10;;
28934;SDS011;16044;52.726;-2.108;2023-02-21T04:14:41;0.25;;;0.10;;
28934;SDS011;16044;52.726;-2.108;2023-02-21T04:17:08;0.35;;;0.20;;
28934;SDS011;16044;52.726;-2.108;2023-02-21T04:19:34;0.20;;;0.10;;
28934;SDS011;16044;52.726;-2.108;2023-02-21T04:22:01;1.20;;;0.20;;
28934;SDS011;16044;52.726;-2.108;2023-02-21T04:24:29;0.30;;;0.10;;
28934;SDS011;16044;52.726;-2.108;2023-02-21T04:26:55;0.40;;;0.10;;
28934;SDS011;16044;52.726;-2.108;2023-02-21T04:29:23;0.63;;;0.10;;
28934;SDS011;16044;52.726;-2.108;2023-02-21T04:31:50;0.60;;;0.13;;
28934;SDS011;16044;52.726;-2.108;2023-02-21T04:34:17;0.40;;;0.10;;
28934;SDS011;16044;52.726;-2.108;2023-02-21T04:36:44;0.20;;;0.10;;
28934;SDS011;16044;52.726;-2.108;2023-02-21T04:39:11;0.45;;;0.20;;
28934;SDS011;16044;52.726;-2.108;2023-02-21T04:41:39;0.85;;;0.20;;
28934;SDS011;16044;52.726;-2.108;2023-02-21T04:44:06;0.93;;;0.20;;
28934;SDS011;16044;52.726;-2.108;2023-02-21T04:46:33;0.20;;;0.10;;
28934;SDS011;16044;52.726;-2.108;2023-02-21T04:49:00;0.63;;;0.20;;
28934;SDS011;16044;52.726;-2.108;2023-02-21T04:51:27;1.17;;;0.20;;
28934;SDS011;16044;52.726;-2.108;2023-02-21T04:53:54;0.30;;;0.20;;
28934;SDS011;16044;52.726;-2.108;2023-02-21T04:56:22;1.33;;;0.20;;
28934;SDS011;16044;52.726;-2.108;2023-02-21T04:58:53;0.32;;;0.10;;
28934;SDS011;16044;52.726;-2.108;2023-02-21T05:01:21;0.55;;;0.20;;
28934;SDS011;16044;52.726;-2.108;2023-02-21T05:03:48;0.40;;;0.30;;
28934;SDS011;16044;52.726;-2.108;2023-02-21T05:06:16;0.25;;;0.20;;
28934;SDS011;16044;52.726;-2.108;2023-02-21T05:08:47;0.30;;;0.20;;
28934;SDS011;16044;52.726;-2.108;2023-02-21T05:11:15;0.40;;;0.30;;
28934;SDS011;16044;52.726;-2.108;2023-02-21T05:13:43;0.60;;;0.30;;
28934;SDS011;16044;52.726;-2.108;2023-02-21T05:16:11;0.47;;;0.20;;
28934;SDS011;16044;52.726;-2.108;2023-02-21T05:18:42;0.50;;;0.20;;
28934;SDS011;16044;52.726;-2.108;2023-02-21T05:21:12;0.52;;;0.20;;
28934;SDS011;16044;52.726;-2.108;2023-02-21T05:23:41;1.77;;;0.30;;
28934;SDS011;16044;52.726;-2.108;2023-02-21T05:26:23;0.50;;;0.20;;
28934;SDS011;16044;52.726;-2.108;2023-02-21T05:28:53;0.80;;;0.25;;
28934;SDS011;16044;52.726;-2.108;2023-02-21T05:31:20;0.43;;;0.30;;
28934;SDS011;16044;52.726;-2.108;2023-02-21T05:33:47;0.40;;;0.20;;
28934;SDS011;16044;52.726;-2.108;2023-02-21T05:36:14;0.60;;;0.30;;
28934;SDS011;16044;52.726;-2.108;2023-02-21T05:38:43;0.85;;;0.20;;
28934;SDS011;16044;52.726;-2.108;2023-02-21T05:41:15;0.40;;;0.20;;
28934;SDS011;16044;52.726;-2.108;2023-02-21T05:43:44;0.60;;;0.20;;
28934;SDS011;16044;52.726;-2.108;2023-02-21T05:46:20;0.52;;;0.22;;
28934;SDS011;16044;52.726;-2.108;2023-02-21T05:48:50;1.05;;;0.28;;
28934;SDS011;16044;52.726;-2.108;2023-02-21T05:51:17;0.52;;;0.22;;
28934;SDS011;16044;52.726;-2.108;2023-02-21T05:53:45;1.10;;;0.20;;
28934;SDS011;16044;52.726;-2.108;2023-02-21T05:56:12;0.40;;;0.30;;
28934;SDS011;16044;52.726;-2.108;2023-02-21T05:58:39;0.50;;;0.30;;
28934;SDS011;16044;52.726;-2.108;2023-02-21T06:01:06;0.35;;;0.20;;
28934;SDS011;16044;52.726;-2.108;2023-02-21T06:03:33;0.38;;;0.20;;
28934;SDS011;16044;52.726;-2.108;2023-02-21T06:06:00;0.85;;;0.20;;
28934;SDS011;16044;52.726;-2.108;2023-02-21T06:08:27;0.90;;;0.20;;
28934;SDS011;16044;52.726;-2.108;2023-02-21T06:10:54;0.30;;;0.15;;
28934;SDS011;16044;52.726;-2.108;2023-02-21T06:13:21;0.50;;;0.25;;
28934;SDS011;16044;52.726;-2.108;2023-02-21T06:15:48;0.70;;;0.30;;
28934;SDS011;16044;52.726;-2.108;2023-02-21T06:18:15;0.40;;;0.15;;
28934;SDS011;16044;52.726;-2.108;2023-02-21T06:20:43;0.40;;;0.20;;
28934;SDS011;16044;52.726;-2.108;2023-02-21T06:23:10;0.30;;;0.20;;
28934;SDS011;16044;52.726;-2.108;2023-02-21T06:25:37;0.32;;;0.20;;
28934;SDS011;16044;52.726;-2.108;2023-02-21T06:28:04;1.15;;;0.30;;
28934;SDS011;16044;52.726;-2.108;2023-02-21T06:30:31;1.35;;;0.30;;
28934;SDS011;16044;52.726;-2.108;2023-02-21T06:32:58;0.20;;;0.10;;
28934;SDS011;16044;52.726;-2.108;2023-02-21T06:35:25;0.43;;;0.25;;
28934;SDS011;16044;52.726;-2.108;2023-02-21T06:37:52;0.40;;;0.20;;
28934;SDS011;16044;52.726;-2.108;2023-02-21T06:40:18;0.17;;;0.10;;
28934;SDS011;16044;52.726;-2.108;2023-02-21T06:42:45;0.35;;;0.22;;
28934;SDS011;16044;52.726;-2.108;2023-02-21T06:45:12;0.73;;;0.30;;
28934;SDS011;16044;52.726;-2.108;2023-02-21T06:47:39;1.15;;;0.30;;
28934;SDS011;16044;52.726;-2.108;2023-02-21T06:50:06;0.30;;;0.20;;
28934;SDS011;16044;52.726;-2.108;2023-02-21T06:52:35;0.60;;;0.20;;
28934;SDS011;16044;52.726;-2.108;2023-02-21T06:55:02;0.40;;;0.13;;
28934;SDS011;16044;52.726;-2.108;2023-02-21T06:57:29;2.28;;;0.20;;
28934;SDS011;16044;52.726;-2.108;2023-02-21T06:59:56;0.50;;;0.20;;
28934;SDS011;16044;52.726;-2.108;2023-02-21T07:02:23;0.75;;;0.28;;
28934;SDS011;16044;52.726;-2.108;2023-02-21T07:04:50;0.50;;;0.20;;
28934;SDS011;16044;52.726;-2.108;2023-02-21T07:07:17;0.98;;;0.30;;
28934;SDS011;16044;52.726;-2.108;2023-02-21T07:09:44;0.77;;;0.38;;
28934;SDS011;16044;52.726;-2.108;2023-02-21T07:12:11;0.68;;;0.30;;
28934;SDS011;16044;52.726;-2.108;2023-02-21T07:14:38;0.98;;;0.40;;
28934;SDS011;16044;52.726;-2.108;2023-02-21T07:17:05;0.95;;;0.40;;
28934;SDS011;16044;52.726;-2.108;2023-02-21T07:19:32;0.82;;;0.40;;
28934;SDS011;16044;52.726;-2.108;2023-02-21T07:21:59;1.73;;;0.32;;
28934;SDS011;16044;52.726;-2.108;2023-02-21T07:24:26;1.10;;;0.60;;
28934;SDS011;16044;52.726;-2.108;2023-02-21T07:26:52;0.82;;;0.50;;
28934;SDS011;16044;52.726;-2.108;2023-02-21T07:29:20;0.88;;;0.50;;
28934;SDS011;16044;52.726;-2.108;2023-02-21T07:31:47;0.88;;;0.30;;
28934;SDS011;16044;52.726;-2.108;2023-02-21T07:34:14;0.70;;;0.28;;
28934;SDS011;16044;52.726;-2.108;2023-02-21T07:36:42;1.17;;;0.30;;
28934;SDS011;16044;52.726;-2.108;2023-02-21T07:39:09;0.57;;;0.20;;
28934;SDS011;16044;52.726;-2.108;2023-02-21T07:41:36;1.38;;;0.40;;
28934;SDS011;16044;52.726;-2.108;2023-02-21T07:44:03;0.90;;;0.40;;
28934;SDS011;16044;52.726;-2.108;2023-02-21T07:46:31;0.73;;;0.20;;
28934;SDS011;16044;52.726;-2.108;2023-02-21T07:48:58;1.05;;;0.30;;
28934;SDS011;16044;52.726;-2.108;2023-02-21T07:51:28;0.80;;;0.40;;
28934;SDS011;16044;52.726;-2.108;2023-02-21T07:53:56;1.10;;;0.40;;
28934;SDS011;16044;52.726;-2.108;2023-02-21T07:56:23;0.80;;;0.40;;
28934;SDS011;16044;52.726;-2.108;2023-02-21T07:58:50;0.50;;;0.30;;
28934;SDS011;16044;52.726;-2.108;2023-02-21T08:01:16;0.60;;;0.40;;
28934;SDS011;16044;52.726;-2.108;2023-02-21T08:03:48;0.50;;;0.30;;
28934;SDS011;16044;52.726;-2.108;2023-02-21T08:06:15;0.50;;;0.30;;
28934;SDS011;16044;52.726;-2.108;2023-02-21T08:08:43;0.50;;;0.30;;
28934;SDS011;16044;52.726;-2.108;2023-02-21T08:11:11;0.43;;;0.30;;
28934;SDS011;16044;52.726;-2.108;2023-02-21T08:13:38;0.50;;;0.20;;
28934;SDS011;16044;52.726;-2.108;2023-02-21T08:16:05;0.50;;;0.30;;
28934;SDS011;16044;52.726;-2.108;2023-02-21T08:18:32;0.70;;;0.30;;
28934;SDS011;16044;52.726;-2.108;2023-02-21T08:20:59;1.65;;;0.40;;
28934;SDS011;16044;52.726;-2.108;2023-02-21T08:23:26;0.60;;;0.30;;
28934;SDS011;16044;52.726;-2.108;2023-02-21T08:25:54;0.77;;;0.40;;
28934;SDS011;16044;52.726;-2.108;2023-02-21T08:28:21;0.47;;;0.22;;
28934;SDS011;16044;52.726;-2.108;2023-02-21T08:30:47;0.50;;;0.20;;
28934;SDS011;16044;52.726;-2.108;2023-02-21T08:33:14;0.70;;;0.30;;
28934;SDS011;16044;52.726;-2.108;2023-02-21T08:35:41;0.70;;;0.20;;
28934;SDS011;16044;52.726;-2.108;2023-02-21T08:38:08;0.55;;;0.30;;
28934;SDS011;16044;52.726;-2.108;2023-02-21T08:40:36;0.60;;;0.20;;
28934;SDS011;16044;52.726;-2.108;2023-02-21T08:43:03;0.70;;;0.30;;
28934;SDS011;16044;52.726;-2.108;2023-02-21T08:45:31;1.05;;;0.30;;
28934;SDS011;16044;52.726;-2.108;2023-02-21T08:47:58;1.02;;;0.30;;
28934;SDS011;16044;52.726;-2.108;2023-02-21T08:50:25;0.75;;;0.30;;
28934;SDS011;16044;52.726;-2.108;2023-02-21T08:52:54;2.20;;;0.50;;
28934;SDS011;16044;52.726;-2.108;2023-02-21T08:55:22;1.15;;;0.35;;
28934;SDS011;16044;52.726;-2.108;2023-02-21T08:57:50;1.75;;;0.47;;
28934;SDS011;16044;52.726;-2.108;2023-02-21T09:00:19;0.57;;;0.30;;
28934;SDS011;16044;52.726;-2.108;2023-02-21T09:02:50;1.83;;;0.50;;
28934;SDS011;16044;52.726;-2.108;2023-02-21T09:05:19;0.80;;;0.50;;
28934;SDS011;16044;52.726;-2.108;2023-02-21T09:07:50;0.70;;;0.40;;
28934;SDS011;16044;52.726;-2.108;2023-02-21T09:10:20;0.90;;;0.40;;
28934;SDS011;16044;52.726;-2.108;2023-02-21T09:12:47;0.85;;;0.45;;
28934;SDS011;16044;52.726;-2.108;2023-02-21T09:15:14;1.30;;;0.50;;
28934;SDS011;16044;52.726;-2.108;2023-02-21T09:17:42;1.38;;;0.60;;
28934;SDS011;16044;52.726;-2.108;2023-02-21T09:20:10;1.17;;;0.70;;
28934;SDS011;16044;52.726;-2.108;2023-02-21T09:22:42;1.05;;;0.60;;
28934;SDS011;16044;52.726;-2.108;2023-02-21T09:25:11;1.65;;;0.70;;
28934;SDS011;16044;52.726;-2.108;2023-02-21T09:27:39;1.42;;;0.60;;
28934;SDS011;16044;52.726;-2.108;2023-02-21T09:30:11;1.92;;;0.70;;
28934;SDS011;16044;52.726;-2.108;2023-02-21T09:32:42;1.55;;;0.60;;
28934;SDS011;16044;52.726;-2.108;2023-02-21T09:35:09;1.00;;;0.60;;
28934;SDS011;16044;52.726;-2.108;2023-02-21T09:37:39;1.58;;;0.80;;
28934;SDS011;16044;52.726;-2.108;2023-02-21T09:43:02;1.73;;;1.10;;
28934;SDS011;16044;52.726;-2.108;2023-02-21T09:45:35;3.75;;;0.93;;
28934;SDS011;16044;52.726;-2.108;2023-02-21T09:48:05;2.22;;;0.80;;
28934;SDS011;16044;52.726;-2.108;2023-02-21T09:50:48;1.27;;;0.82;;
28934;SDS011;16044;52.726;-2.108;2023-02-21T09:55:53;1.15;;;0.75;;
28934;SDS011;16044;52.726;-2.108;2023-02-21T09:58:26;3.50;;;1.25;;
28934;SDS011;16044;52.726;-2.108;2023-02-21T10:00:54;1.77;;;0.85;;
28934;SDS011;16044;52.726;-2.108;2023-02-21T10:06:50;1.40;;;0.88;;
28934;SDS011;16044;52.726;-2.108;2023-02-21T10:12:34;3.00;;;1.30;;
28934;SDS011;16044;52.726;-2.108;2023-02-21T10:15:33;2.10;;;1.30;;
28934;SDS011;16044;52.726;-2.108;2023-02-21T10:18:35;1.88;;;1.00;;
28934;SDS011;16044;52.726;-2.108;2023-02-21T10:21:11;2.95;;;1.25;;
28934;SDS011;16044;52.726;-2.108;2023-02-21T10:23:49;2.10;;;1.30;;
28934;SDS011;16044;52.726;-2.108;2023-02-21T10:26:22;2.05;;;1.23;;
28934;SDS011;16044;52.726;-2.108;2023-02-21T10:28:53;3.10;;;1.35;;
28934;SDS011;16044;52.726;-2.108;2023-02-21T10:33:51;1.80;;;1.20;;
28934;SDS011;16044;52.726;-2.108;2023-02-21T10:36:19;2.20;;;1.40;;
28934;SDS011;16044;52.726;-2.108;2023-02-21T10:38:56;3.42;;;1.25;;
28934;SDS011;16044;52.726;-2.108;2023-02-21T10:41:34;3.60;;;1.33;;
28934;SDS011;16044;52.726;-2.108;2023-02-21T10:44:09;2.60;;;1.30;;
28934;SDS011;16044;52.726;-2.108;2023-02-21T10:46:44;6.47;;;1.52;;
28934;SDS011;16044;52.726;-2.108;2023-02-21T10:49:31;2.60;;;1.60;;
28934;SDS011;16044;52.726;-2.108;2023-02-21T10:54:39;2.55;;;1.20;;
28934;SDS011;16044;52.726;-2.108;2023-02-21T10:57:07;2.80;;;1.20;;
28934;SDS011;16044;52.726;-2.108;2023-02-21T10:59:38;1.65;;;1.00;;
28934;SDS011;16044;52.726;-2.108;2023-02-21T11:05:16;2.58;;;1.27;;
28934;SDS011;16044;52.726;-2.108;2023-02-21T11:07:57;1.95;;;1.10;;
28934;SDS011;16044;52.726;-2.108;2023-02-21T11:10:32;2.67;;;1.20;;
28934;SDS011;16044;52.726;-2.108;2023-02-21T11:13:15;3.03;;;1.25;;
28934;SDS011;16044;52.726;-2.108;2023-02-21T11:15:47;2.10;;;1.00;;
28934;SDS011;16044;52.726;-2.108;2023-02-21T11:18:16;1.90;;;1.38;;
28934;SDS011;16044;52.726;-2.108;2023-02-21T11:20:51;1.55;;;1.10;;
28934;SDS011;16044;52.726;-2.108;2023-02-21T11:23:26;1.80;;;1.20;;
28934;SDS011;16044;52.726;-2.108;2023-02-21T11:26:14;2.58;;;1.13;;
28934;SDS011;16044;52.726;-2.108;2023-02-21T11:28:41;1.95;;;1.27;;
28934;SDS011;16044;52.726;-2.108;2023-02-21T11:31:14;2.30;;;1.30;;
28934;SDS011;16044;52.726;-2.108;2023-02-21T11:33:50;2.83;;;1.10;;
28934;SDS011;16044;52.726;-2.108;2023-02-21T11:36:29;3.10;;;1.40;;
28934;SDS011;16044;52.726;-2.108;2023-02-21T11:41:46;1.90;;;1.10;;
28934;SDS011;16044;52.726;-2.108;2023-02-21T11:47:42;1.85;;;1.10;;
28934;SDS011;16044;52.726;-2.108;2023-02-21T11:52:39;5.68;;;1.30;;
28934;SDS011;16044;52.726;-2.108;2023-02-21T11:55:16;2.78;;;1.10;;
28934;SDS011;16044;52.726;-2.108;2023-02-21T12:12:31;1.98;;;1.17;;
28934;SDS011;16044;52.726;-2.108;2023-02-21T12:21:26;3.70;;;1.10;;
28934;SDS011;16044;52.726;-2.108;2023-02-21T12:32:48;2.67;;;0.80;;
28934;SDS011;16044;52.726;-2.108;2023-02-21T12:38:48;1.58;;;0.70;;
28934;SDS011;16044;52.726;-2.108;2023-02-21T12:44:19;1.63;;;0.60;;
28934;SDS011;16044;52.726;-2.108;2023-02-21T12:47:11;3.53;;;0.80;;
28934;SDS011;16044;52.726;-2.108;2023-02-21T12:49:52;0.80;;;0.50;;
28934;SDS011;16044;52.726;-2.108;2023-02-21T12:55:53;1.90;;;0.70;;
28934;SDS011;16044;52.726;-2.108;2023-02-21T12:58:39;5.15;;;1.77;;
28934;SDS011;16044;52.726;-2.108;2023-02-21T13:01:21;8.50;;;5.93;;
28934;SDS011;16044;52.726;-2.108;2023-02-21T13:04:02;8.98;;;5.75;;
28934;SDS011;16044;52.726;-2.108;2023-02-21T13:07:23;11.15;;;6.18;;
28934;SDS011;16044;52.726;-2.108;2023-02-21T13:09:39;5.95;;;2.72;;
28934;SDS011;16044;52.726;-2.108;2023-02-21T13:12:15;2.05;;;1.20;;
28934;SDS011;16044;52.726;-2.108;2023-02-21T13:14:52;2.78;;;0.98;;
28934;SDS011;16044;52.726;-2.108;2023-02-21T13:17:24;1.63;;;0.73;;
28934;SDS011;16044;52.726;-2.108;2023-02-21T13:20:03;2.42;;;0.80;;
28934;SDS011;16044;52.726;-2.108;2023-02-21T13:29:11;2.72;;;0.70;;
28934;SDS011;16044;52.726;-2.108;2023-02-21T13:34:38;1.85;;;1.10;;
28934;SDS011;16044;52.726;-2.108;2023-02-21T13:37:14;2.50;;;0.80;;
28934;SDS011;16044;52.726;-2.108;2023-02-21T13:39:49;2.95;;;1.10;;
28934;SDS011;16044;52.726;-2.108;2023-02-21T13:42:27;1.38;;;0.80;;
28934;SDS011;16044;52.726;-2.108;2023-02-21T13:45:13;1.95;;;1.02;;
28934;SDS011;16044;52.726;-2.108;2023-02-21T13:55:34;2.28;;;1.10;;
28934;SDS011;16044;52.726;-2.108;2023-02-21T14:13:44;2.50;;;1.70;;
28934;SDS011;16044;52.726;-2.108;2023-02-21T14:19:19;3.42;;;2.00;;
28934;SDS011;16044;52.726;-2.108;2023-02-21T14:25:05;2.83;;;2.20;;
28934;SDS011;16044;52.726;-2.108;2023-02-21T14:27:41;3.55;;;2.60;;
28934;SDS011;16044;52.726;-2.108;2023-02-21T14:32:51;3.70;;;2.58;;
28934;SDS011;16044;52.726;-2.108;2023-02-21T14:35:26;5.35;;;2.80;;
28934;SDS011;16044;52.726;-2.108;2023-02-21T14:38:06;3.90;;;2.50;;
28934;SDS011;16044;52.726;-2.108;2023-02-21T14:40:59;3.33;;;2.30;;
28934;SDS011;16044;52.726;-2.108;2023-02-21T14:46:51;3.90;;;2.70;;
28934;SDS011;16044;52.726;-2.108;2023-02-21T15:07:55;9.25;;;6.20;;
28934;SDS011;16044;52.726;-2.108;2023-02-21T15:10:32;9.18;;;6.10;;
28934;SDS011;16044;52.726;-2.108;2023-02-21T15:16:04;11.77;;;6.80;;
28934;SDS011;16044;52.726;-2.108;2023-02-21T15:18:34;12.35;;;7.35;;
28934;SDS011;16044;52.726;-2.108;2023-02-21T15:21:25;9.70;;;6.65;;
28934;SDS011;16044;52.726;-2.108;2023-02-21T15:24:00;11.73;;;8.65;;
28934;SDS011;16044;52.726;-2.108;2023-02-21T15:26:38;12.30;;;8.45;;
28934;SDS011;16044;52.726;-2.108;2023-02-21T15:29:06;13.63;;;8.98;;
28934;SDS011;16044;52.726;-2.108;2023-02-21T15:31:38;15.02;;;9.00;;
28934;SDS011;16044;52.726;-2.108;2023-02-21T15:34:15;15.20;;;9.70;;
28934;SDS011;16044;52.726;-2.108;2023-02-21T15:36:46;15.52;;;10.45;;
28934;SDS011;16044;52.726;-2.108;2023-02-21T15:39:22;19.40;;;12.05;;
28934;SDS011;16044;52.726;-2.108;2023-02-21T15:41:58;20.90;;;12.45;;
28934;SDS011;16044;52.726;-2.108;2023-02-21T15:44:31;21.70;;;13.70;;
28934;SDS011;16044;52.726;-2.108;2023-02-21T15:47:16;20.52;;;12.45;;
28934;SDS011;16044;52.726;-2.108;2023-02-21T15:57:45;23.05;;;13.85;;
28934;SDS011;16044;52.726;-2.108;2023-02-21T16:00:38;19.13;;;11.85;;
28934;SDS011;16044;52.726;-2.108;2023-02-21T16:06:27;22.83;;;13.52;;
28934;SDS011;16044;52.726;-2.108;2023-02-21T16:19:51;23.30;;;14.60;;
28934;SDS011;16044;52.726;-2.108;2023-02-21T16:22:24;21.50;;;13.68;;
28934;SDS011;16044;52.726;-2.108;2023-02-21T16:27:39;25.52;;;15.65;;
28934;SDS011;16044;52.726;-2.108;2023-02-21T16:30:16;26.30;;;14.88;;
28934;SDS011;16044;52.726;-2.108;2023-02-21T16:32:49;27.60;;;15.07;;
28934;SDS011;16044;52.726;-2.108;2023-02-21T16:35:21;23.48;;;14.65;;
28934;SDS011;16044;52.726;-2.108;2023-02-21T16:37:52;24.95;;;15.23;;
28934;SDS011;16044;52.726;-2.108;2023-02-21T16:40:26;26.48;;;15.55;;
28934;SDS011;16044;52.726;-2.108;2023-02-21T16:42:56;24.35;;;15.10;;
28934;SDS011;16044;52.726;-2.108;2023-02-21T16:45:24;24.77;;;15.35;;
28934;SDS011;16044;52.726;-2.108;2023-02-21T16:48:03;28.65;;;15.90;;
28934;SDS011;16044;52.726;-2.108;2023-02-21T16:53:01;27.02;;;17.10;;
28934;SDS011;16044;52.726;-2.108;2023-02-21T16:55:29;31.92;;;18.13;;
28934;SDS011;16044;52.726;-2.108;2023-02-21T16:57:58;30.20;;;17.55;;
28934;SDS011;16044;52.726;-2.108;2023-02-21T17:00:28;32.47;;;18.00;;
28934;SDS011;16044;52.726;-2.108;2023-02-21T17:02:56;28.73;;;16.95;;
28934;SDS011;16044;52.726;-2.108;2023-02-21T17:05:24;28.92;;;17.48;;
28934;SDS011;16044;52.726;-2.108;2023-02-21T17:07:52;32.78;;;17.20;;
28934;SDS011;16044;52.726;-2.108;2023-02-21T17:10:20;26.17;;;16.00;;
28934;SDS011;16044;52.726;-2.108;2023-02-21T17:12:48;27.02;;;16.23;;
28934;SDS011;16044;52.726;-2.108;2023-02-21T17:15:15;30.27;;;16.70;;
28934;SDS011;16044;52.726;-2.108;2023-02-21T17:17:42;28.67;;;17.05;;
28934;SDS011;16044;52.726;-2.108;2023-02-21T17:20:19;27.75;;;15.85;;
28934;SDS011;16044;52.726;-2.108;2023-02-21T17:22:47;27.50;;;16.05;;
28934;SDS011;16044;52.726;-2.108;2023-02-21T17:25:15;27.38;;;15.35;;
28934;SDS011;16044;52.726;-2.108;2023-02-21T17:27:43;28.80;;;16.58;;
28934;SDS011;16044;52.726;-2.108;2023-02-21T17:30:11;27.52;;;15.98;;
28934;SDS011;16044;52.726;-2.108;2023-02-21T17:32:39;28.20;;;15.82;;
28934;SDS011;16044;52.726;-2.108;2023-02-21T17:35:06;26.77;;;15.55;;
28934;SDS011;16044;52.726;-2.108;2023-02-21T17:37:33;28.38;;;15.68;;
28934;SDS011;16044;52.726;-2.108;2023-02-21T17:40:00;26.38;;;16.00;;
28934;SDS011;16044;52.726;-2.108;2023-02-21T17:42:28;25.92;;;14.75;;
28934;SDS011;16044;52.726;-2.108;2023-02-21T17:44:54;25.13;;;15.20;;
28934;SDS011;16044;52.726;-2.108;2023-02-21T17:47:23;23.92;;;14.70;;
28934;SDS011;16044;52.726;-2.108;2023-02-21T17:49:50;23.90;;;14.90;;
28934;SDS011;16044;52.726;-2.108;2023-02-21T17:52:20;25.45;;;14.80;;
28934;SDS011;16044;52.726;-2.108;2023-02-21T17:54:47;23.92;;;14.75;;
28934;SDS011;16044;52.726;-2.108;2023-02-21T17:57:14;23.50;;;14.25;;
28934;SDS011;16044;52.726;-2.108;2023-02-21T17:59:41;21.60;;;14.00;;
28934;SDS011;16044;52.726;-2.108;2023-02-21T18:02:10;24.02;;;14.68;;
28934;SDS011;16044;52.726;-2.108;2023-02-21T18:04:37;24.70;;;15.10;;
28934;SDS011;16044;52.726;-2.108;2023-02-21T18:07:04;24.60;;;15.00;;
28934;SDS011;16044;52.726;-2.108;2023-02-21T18:09:32;22.38;;;14.15;;
28934;SDS011;16044;52.726;-2.108;2023-02-21T18:11:59;26.33;;;15.05;;
28934;SDS011;16044;52.726;-2.108;2023-02-21T18:14:26;25.55;;;14.40;;
28934;SDS011;16044;52.726;-2.108;2023-02-21T18:16:55;22.80;;;14.23;;
28934;SDS011;16044;52.726;-2.108;2023-02-21T18:19:23;22.48;;;14.32;;
28934;SDS011;16044;52.726;-2.108;2023-02-21T18:21:50;24.85;;;15.55;;
28934;SDS011;16044;52.726;-2.108;2023-02-21T18:24:17;26.38;;;15.55;;
28934;SDS011;16044;52.726;-2.108;2023-02-21T18:26:44;25.33;;;15.00;;
28934;SDS011;16044;52.726;-2.108;2023-02-21T18:29:11;24.95;;;14.98;;
28934;SDS011;16044;52.726;-2.108;2023-02-21T18:31:39;26.65;;;16.00;;
28934;SDS011;16044;52.726;-2.108;2023-02-21T18:34:06;23.00;;;15.25;;
28934;SDS011;16044;52.726;-2.108;2023-02-21T18:36:32;23.17;;;15.40;;
28934;SDS011;16044;52.726;-2.108;2023-02-21T18:39:00;22.90;;;14.57;;
28934;SDS011;16044;52.726;-2.108;2023-02-21T18:41:28;24.65;;;14.45;;
28934;SDS011;16044;52.726;-2.108;2023-02-21T18:43:55;21.67;;;13.88;;
28934;SDS011;16044;52.726;-2.108;2023-02-21T18:46:21;22.17;;;14.95;;
28934;SDS011;16044;52.726;-2.108;2023-02-21T18:48:49;21.52;;;14.57;;